createdAt,value
2018-11-25T00:02:18.451Z,55.30
2018-11-25T00:04:46.790Z,55.20
2018-11-25T00:07:15.082Z,55.20
2018-11-25T00:09:43.403Z,55.20
2018-11-25T00:12:11.723Z,55.30
2018-11-25T00:14:40.052Z,55.40
2018-11-25T00:17:09.510Z,55.30
2018-11-25T00:19:37.806Z,55.30
2018-11-25T00:22:06.147Z,55.40
2018-11-25T00:24:34.454Z,55.40
2018-11-25T00:27:02.750Z,55.40
2018-11-25T00:29:31.058Z,55.60
2018-11-25T00:32:00.336Z,55.70
2018-11-25T00:34:28.663Z,55.40
2018-11-25T00:36:56.961Z,55.40
2018-11-25T00:39:25.282Z,55.40
2018-11-25T00:41:53.602Z,55.30
2018-11-25T00:44:21.907Z,55.30
2018-11-25T00:46:50.258Z,55.20
2018-11-25T00:49:18.562Z,55.30
2018-11-25T00:51:46.866Z,55.40
2018-11-25T00:54:15.162Z,55.40
2018-11-25T00:56:43.473Z,55.30
2018-11-25T00:59:11.771Z,55.30
2018-11-25T01:01:40.083Z,55.30
2018-11-25T01:04:08.356Z,55.40
2018-11-25T01:06:36.641Z,55.40
2018-11-25T01:09:07.777Z,55.70
2018-11-25T01:11:36.090Z,55.70
2018-11-25T01:14:04.388Z,55.40
2018-11-25T01:16:32.683Z,55.40
2018-11-25T01:19:00.952Z,55.40
2018-11-25T01:21:29.245Z,55.30
2018-11-25T01:23:57.550Z,55.30
2018-11-25T01:26:25.849Z,55.30
2018-11-25T01:28:54.143Z,55.40
2018-11-25T01:31:22.438Z,55.40
2018-11-25T01:33:50.729Z,55.40
2018-11-25T01:36:19.109Z,55.40
2018-11-25T01:38:47.409Z,55.40
2018-11-25T01:41:15.715Z,55.40
2018-11-25T01:43:44.047Z,55.50
2018-11-25T01:46:12.341Z,55.70
2018-11-25T01:48:40.629Z,55.60
2018-11-25T01:51:08.921Z,55.30
2018-11-25T01:53:37.204Z,55.40
2018-11-25T01:56:05.737Z,55.40
2018-11-25T01:58:34.029Z,55.30
2018-11-25T02:01:02.322Z,55.30
2018-11-25T02:03:30.594Z,55.40
2018-11-25T02:05:58.935Z,55.60
2018-11-25T02:08:27.234Z,55.60
2018-11-25T02:10:55.609Z,55.50
2018-11-25T02:13:23.910Z,55.60
2018-11-25T02:15:52.209Z,55.60
2018-11-25T02:18:20.521Z,55.60
2018-11-25T02:20:48.815Z,55.50
2018-11-25T02:23:17.118Z,55.60
2018-11-25T02:25:45.421Z,55.60
2018-11-25T02:28:13.727Z,55.60
2018-11-25T02:30:42.031Z,55.60
2018-11-25T02:33:10.311Z,55.60
2018-11-25T02:35:38.614Z,56.20
2018-11-25T02:38:06.927Z,55.60
2018-11-25T02:40:35.231Z,55.60
2018-11-25T02:43:03.513Z,55.80
2018-11-25T02:45:31.810Z,55.80
2018-11-25T02:48:00.076Z,55.60
2018-11-25T02:50:30.066Z,55.30
2018-11-25T02:53:06.413Z,55.40
2018-11-25T02:55:34.700Z,55.30
2018-11-25T02:58:03.004Z,55.30
2018-11-25T03:00:31.303Z,55.30
2018-11-25T03:02:59.599Z,55.40
2018-11-25T03:05:27.900Z,55.50
2018-11-25T03:07:56.713Z,55.50
2018-11-25T03:10:24.989Z,55.50
2018-11-25T03:12:53.313Z,55.50
2018-11-25T03:15:21.597Z,55.60
2018-11-25T03:17:49.907Z,55.50
2018-11-25T03:20:18.490Z,55.60
2018-11-25T03:22:46.792Z,55.80
2018-11-25T03:25:16.046Z,55.80
2018-11-25T03:27:44.367Z,55.60
2018-11-25T03:30:14.649Z,55.50
2018-11-25T03:32:43.233Z,55.40
2018-11-25T03:35:12.288Z,55.40
2018-11-25T03:37:40.574Z,55.30
2018-11-25T03:40:10.126Z,55.40
2018-11-25T03:42:38.511Z,55.60
2018-11-25T03:45:10.425Z,55.60
2018-11-25T03:47:38.715Z,55.50
2018-11-25T03:50:07.874Z,55.40
2018-11-25T03:52:36.198Z,55.50
2018-11-25T03:55:06.382Z,55.60
2018-11-25T03:57:34.790Z,55.60
2018-11-25T04:00:03.147Z,55.80
2018-11-25T04:02:31.458Z,55.80
2018-11-25T04:04:59.740Z,55.50
2018-11-25T04:07:28.044Z,55.60
2018-11-25T04:09:56.369Z,55.60
2018-11-25T04:12:24.670Z,55.50
2018-11-25T04:14:52.970Z,55.50
2018-11-25T04:17:21.271Z,55.50
2018-11-25T04:19:49.603Z,55.60
2018-11-25T04:22:17.876Z,55.60
2018-11-25T04:24:46.179Z,55.60
2018-11-25T04:27:14.506Z,55.60
2018-11-25T04:29:42.815Z,55.60
2018-11-25T04:32:11.124Z,55.70
2018-11-25T04:34:39.426Z,55.70
2018-11-25T04:37:07.712Z,55.90
2018-11-25T04:39:35.998Z,55.90
2018-11-25T04:42:04.304Z,55.80
2018-11-25T04:44:32.610Z,55.60
2018-11-25T04:47:00.902Z,55.60
2018-11-25T04:49:29.213Z,55.60
2018-11-25T04:51:57.510Z,55.50
2018-11-25T04:54:25.791Z,55.40
2018-11-25T04:56:54.074Z,55.50
2018-11-25T04:59:22.380Z,56.20
2018-11-25T05:01:50.674Z,55.60
2018-11-25T05:04:19.868Z,55.40
2018-11-25T05:06:48.162Z,55.50
2018-11-25T05:09:16.463Z,55.40
2018-11-25T05:11:44.778Z,55.40
2018-11-25T05:14:13.050Z,55.50
2018-11-25T05:16:41.378Z,55.60
2018-11-25T05:19:09.690Z,55.40
2018-11-25T05:21:38.076Z,55.40
2018-11-25T05:24:06.393Z,55.50
2018-11-25T05:26:34.709Z,55.50
2018-11-25T05:29:03.006Z,55.50
2018-11-25T05:31:31.306Z,55.30
2018-11-25T05:33:59.626Z,55.40
2018-11-25T05:36:27.902Z,56.20
2018-11-25T05:38:56.238Z,55.60
2018-11-25T05:41:24.544Z,55.50
2018-11-25T05:43:52.830Z,55.50
2018-11-25T05:46:21.143Z,55.60
2018-11-25T05:48:49.440Z,55.60
2018-11-25T05:51:17.760Z,55.50
2018-11-25T05:53:46.062Z,55.70
2018-11-25T05:56:14.403Z,56.40
2018-11-25T05:58:42.722Z,55.60
2018-11-25T06:01:11.038Z,55.30
2018-11-25T06:03:39.333Z,55.30
2018-11-25T06:06:07.641Z,55.40
2018-11-25T06:08:35.961Z,55.30
2018-11-25T06:11:04.256Z,55.30
2018-11-25T06:13:32.588Z,55.30
2018-11-25T06:16:00.867Z,55.40
2018-11-25T06:18:29.155Z,55.40
2018-11-25T06:20:57.464Z,55.40
2018-11-25T06:23:25.757Z,55.40
2018-11-25T06:25:54.074Z,55.40
2018-11-25T06:28:22.409Z,55.40
2018-11-25T06:30:50.714Z,55.40
2018-11-25T06:33:19.026Z,55.50
2018-11-25T06:35:47.345Z,55.50
2018-11-25T06:38:15.633Z,55.50
2018-11-25T06:40:43.934Z,55.40
2018-11-25T06:43:12.240Z,55.40
2018-11-25T06:45:40.558Z,55.40
2018-11-25T06:48:08.852Z,55.40
2018-11-25T06:50:37.202Z,55.50
2018-11-25T06:53:05.523Z,55.60
2018-11-25T06:55:33.821Z,55.60
2018-11-25T06:58:02.152Z,55.40
2018-11-25T07:00:30.476Z,55.20
2018-11-25T07:02:58.772Z,55.30
2018-11-25T07:05:27.080Z,55.30
2018-11-25T07:07:55.378Z,55.30
2018-11-25T07:10:23.736Z,55.30
2018-11-25T07:12:53.059Z,55.40
2018-11-25T07:15:21.479Z,55.40
2018-11-25T07:17:49.794Z,55.40
2018-11-25T07:20:18.842Z,55.40
2018-11-25T07:22:47.149Z,55.50
2018-11-25T07:25:19.484Z,55.50
2018-11-25T07:27:47.809Z,55.50
2018-11-25T07:30:17.396Z,55.60
2018-11-25T07:32:45.724Z,55.60
2018-11-25T07:35:17.100Z,55.40
2018-11-25T07:37:45.499Z,55.50
2018-11-25T07:40:17.888Z,55.50
2018-11-25T07:42:46.222Z,55.40
2018-11-25T07:45:16.698Z,55.40
2018-11-25T07:47:45.000Z,55.40
2018-11-25T07:50:13.819Z,55.50
2018-11-25T07:52:43.280Z,55.60
2018-11-25T07:55:12.793Z,55.50
2018-11-25T07:57:41.143Z,55.80
2018-11-25T08:00:27.929Z,55.60
2018-11-25T08:02:56.239Z,55.50
2018-11-25T08:05:26.412Z,55.50
2018-11-25T08:07:54.717Z,55.80
2018-11-25T08:10:22.997Z,55.70
2018-11-25T08:12:51.312Z,55.60
2018-11-25T08:15:19.940Z,55.50
2018-11-25T08:17:48.248Z,55.60
2018-11-25T08:20:19.377Z,55.50
2018-11-25T08:22:47.725Z,55.50
2018-11-25T08:25:16.845Z,55.50
2018-11-25T08:27:45.217Z,55.60
2018-11-25T08:30:16.484Z,55.60
2018-11-25T08:32:44.782Z,55.50
2018-11-25T08:35:13.894Z,55.50
2018-11-25T08:37:42.208Z,55.60
2018-11-25T08:40:23.536Z,55.50
2018-11-25T08:42:51.920Z,55.60
2018-11-25T08:45:20.238Z,55.60
2018-11-25T08:47:48.548Z,55.70
2018-11-25T08:50:18.667Z,55.70
2018-11-25T08:52:48.119Z,55.70
2018-11-25T08:55:19.518Z,55.70
2018-11-25T08:57:47.842Z,55.70
2018-11-25T09:00:17.159Z,56.20
2018-11-25T09:02:45.601Z,55.80
2018-11-25T09:05:14.742Z,55.90
2018-11-25T09:07:43.112Z,55.90
2018-11-25T09:10:13.600Z,55.70
2018-11-25T09:12:42.104Z,55.50
2018-11-25T09:15:13.842Z,55.60
2018-11-25T09:17:42.281Z,56.20
2018-11-25T09:20:13.774Z,55.60
2018-11-25T09:22:42.119Z,55.50
2018-11-25T09:25:12.060Z,55.70
2018-11-25T09:27:40.435Z,55.70
2018-11-25T09:30:18.250Z,55.80
2018-11-25T09:32:46.576Z,55.70
2018-11-25T09:35:14.956Z,55.70
2018-11-25T09:37:43.294Z,55.70
2018-11-25T09:40:15.691Z,55.80
2018-11-25T09:42:44.042Z,55.80
2018-11-25T09:45:13.420Z,55.80
2018-11-25T09:47:41.917Z,55.80
2018-11-25T09:50:12.204Z,55.90
2018-11-25T09:52:40.530Z,55.80
2018-11-25T09:55:10.293Z,55.80
2018-11-25T09:57:38.614Z,55.80
2018-11-25T10:00:15.663Z,55.80
2018-11-25T10:02:43.976Z,55.90
2018-11-25T10:05:12.298Z,56.00
2018-11-25T10:07:40.601Z,55.70
2018-11-25T10:10:17.691Z,55.70
2018-11-25T10:12:46.023Z,55.80
2018-11-25T10:15:15.364Z,55.70
2018-11-25T10:17:43.691Z,55.70
2018-11-25T10:21:45.826Z,55.80
2018-11-25T10:24:14.143Z,55.70
2018-11-25T10:26:42.435Z,55.90
2018-11-25T10:29:10.823Z,55.90
2018-11-25T10:31:39.143Z,55.80
2018-11-25T10:34:07.487Z,55.80
2018-11-25T10:36:35.792Z,55.80
2018-11-25T10:39:04.723Z,55.90
2018-11-25T10:41:33.023Z,56.00
2018-11-25T10:44:01.332Z,56.10
2018-11-25T10:46:29.666Z,56.00
2018-11-25T10:48:58.506Z,56.00
2018-11-25T10:51:26.983Z,56.00
2018-11-25T10:53:55.292Z,56.10
2018-11-25T10:56:23.599Z,56.10
2018-11-25T10:58:51.943Z,56.10
2018-11-25T11:01:25.628Z,56.20
2018-11-25T11:03:55.072Z,56.10
2018-11-25T11:06:29.495Z,55.80
2018-11-25T11:08:57.838Z,55.80
2018-11-25T11:11:26.205Z,55.90
2018-11-25T11:13:54.487Z,55.90
2018-11-25T11:16:22.800Z,55.90
2018-11-25T11:18:51.117Z,55.80
2018-11-25T11:21:19.452Z,56.00
2018-11-25T11:23:47.771Z,56.00
2018-11-25T11:26:23.948Z,56.00
2018-11-25T11:28:52.306Z,56.00
2018-11-25T11:31:20.964Z,56.00
2018-11-25T11:33:49.307Z,56.00
2018-11-25T11:36:17.647Z,56.60
2018-11-25T11:38:45.958Z,56.10
2018-11-25T11:41:14.367Z,56.10
2018-11-25T11:43:42.688Z,56.00
2018-11-25T11:46:11.001Z,56.10
2018-11-25T11:48:39.350Z,56.10
2018-11-25T11:51:07.643Z,56.00
2018-11-25T11:53:36.159Z,56.10
2018-11-25T11:56:04.539Z,56.10
2018-11-25T11:58:32.916Z,56.10
2018-11-25T12:01:01.241Z,56.00
2018-11-25T12:03:29.621Z,55.90
2018-11-25T12:05:57.967Z,55.90
2018-11-25T12:08:26.309Z,55.90
2018-11-25T12:10:54.707Z,55.90
2018-11-25T12:13:23.029Z,55.90
2018-11-25T12:15:51.373Z,56.00
2018-11-25T12:18:19.843Z,56.00
2018-11-25T12:20:48.567Z,56.00
2018-11-25T12:23:16.935Z,56.00
2018-11-25T12:25:45.309Z,56.10
2018-11-25T12:28:13.799Z,56.00
2018-11-25T12:30:42.157Z,56.00
2018-11-25T12:33:10.500Z,56.10
2018-11-25T12:35:38.861Z,56.20
2018-11-25T12:38:07.263Z,56.20
2018-11-25T12:40:35.619Z,56.60
2018-11-25T12:43:04.020Z,56.20
2018-11-25T12:45:32.339Z,56.20
2018-11-25T12:48:00.700Z,56.30
2018-11-25T12:50:29.031Z,56.40
2018-11-25T12:52:57.406Z,56.40
2018-11-25T12:55:26.839Z,56.20
2018-11-25T12:57:56.041Z,56.10
2018-11-25T13:00:26.899Z,56.00
2018-11-25T13:02:55.926Z,56.10
2018-11-25T13:05:24.586Z,56.00
2018-11-25T13:07:53.215Z,56.00
2018-11-25T13:10:21.600Z,56.10
2018-11-25T13:12:49.960Z,56.10
2018-11-25T13:15:18.302Z,56.10
2018-11-25T13:17:46.655Z,56.10
2018-11-25T13:20:16.057Z,56.10
2018-11-25T13:22:44.683Z,56.10
2018-11-25T13:25:14.122Z,56.10
2018-11-25T13:27:42.771Z,56.20
2018-11-25T13:30:17.863Z,56.80
2018-11-25T13:32:46.697Z,56.00
2018-11-25T13:35:15.317Z,56.00
2018-11-25T13:37:43.968Z,56.00
2018-11-25T13:40:13.627Z,56.00
2018-11-25T13:42:41.948Z,55.90
2018-11-25T13:45:10.763Z,56.00
2018-11-25T13:47:39.562Z,56.20
2018-11-25T13:50:09.156Z,56.80
2018-11-25T13:52:37.528Z,56.10
2018-11-25T13:55:12.758Z,56.10
2018-11-25T13:57:41.424Z,56.10
2018-11-25T14:01:19.526Z,56.10
2018-11-25T14:03:47.940Z,56.20
2018-11-25T14:06:16.330Z,56.10
2018-11-25T14:08:47.552Z,56.20
2018-11-25T14:11:15.908Z,56.30
2018-11-25T14:13:44.269Z,56.30
2018-11-25T14:16:15.667Z,56.30
2018-11-25T14:18:44.051Z,56.30
2018-11-25T14:21:12.409Z,56.20
2018-11-25T14:23:40.785Z,56.40
2018-11-25T14:26:14.835Z,56.40
2018-11-25T14:28:43.371Z,56.40
2018-11-25T14:31:11.695Z,56.20
2018-11-25T14:33:40.045Z,56.10
2018-11-25T14:36:08.386Z,56.20
2018-11-25T14:38:36.846Z,56.20
2018-11-25T14:41:05.263Z,56.20
2018-11-25T14:43:33.665Z,56.10
2018-11-25T14:46:02.054Z,56.30
2018-11-25T14:48:30.519Z,56.30
2018-11-25T14:50:58.889Z,56.30
2018-11-25T14:53:27.399Z,56.30
2018-11-25T14:55:55.950Z,56.20
2018-11-25T14:58:24.348Z,56.20
2018-11-25T15:00:52.691Z,56.20
2018-11-25T15:03:21.050Z,56.30
2018-11-25T15:05:49.732Z,56.30
2018-11-25T15:08:22.891Z,56.20
2018-11-25T15:10:51.393Z,56.20
2018-11-25T15:13:20.345Z,56.20
2018-11-25T15:15:48.860Z,56.20
2018-11-25T15:18:17.294Z,56.20
2018-11-25T15:20:46.178Z,56.30
2018-11-25T15:23:15.600Z,56.30
2018-11-25T15:25:45.920Z,56.10
2018-11-25T15:28:14.316Z,56.00
2018-11-25T15:30:42.728Z,56.10
2018-11-25T15:33:11.623Z,56.10
2018-11-25T15:35:40.046Z,56.00
2018-11-25T15:38:08.617Z,56.00
2018-11-25T15:40:37.512Z,56.10
2018-11-25T15:43:07.164Z,56.50
2018-11-25T15:45:35.520Z,56.10
2018-11-25T15:48:12.303Z,56.10
2018-11-25T15:50:40.745Z,56.10
2018-11-25T15:53:10.891Z,56.10
2018-11-25T15:55:39.773Z,56.10
2018-11-25T15:58:08.360Z,56.30
2018-11-25T16:00:36.720Z,56.30
2018-11-25T16:03:07.550Z,56.10
2018-11-25T16:05:36.206Z,56.00
2018-11-25T16:08:04.607Z,56.20
2018-11-25T16:10:33.001Z,56.20
2018-11-25T16:13:01.391Z,56.00
2018-11-25T16:15:29.815Z,56.00
2018-11-25T16:17:58.265Z,56.20
2018-11-25T16:20:27.680Z,56.30
2018-11-25T16:22:58.392Z,56.30
2018-11-25T16:25:34.232Z,56.30
2018-11-25T16:28:36.686Z,56.40
2018-11-25T16:31:05.648Z,56.40
2018-11-25T16:33:34.401Z,56.50
2018-11-25T16:36:02.830Z,56.40
2018-11-25T16:38:31.189Z,56.50
2018-11-25T16:40:59.576Z,56.40
2018-11-25T16:43:27.937Z,56.40
2018-11-25T16:45:56.338Z,56.40
2018-11-25T16:48:24.780Z,56.30
2018-11-25T16:50:53.186Z,56.40
2018-11-25T16:53:21.898Z,56.40
2018-11-25T16:55:50.908Z,56.40
2018-11-25T16:58:19.998Z,56.40
2018-11-25T17:00:48.390Z,56.10
2018-11-25T17:03:16.760Z,56.10
2018-11-25T17:05:48.172Z,56.10
2018-11-25T17:08:34.948Z,56.00
2018-11-25T17:11:03.337Z,56.00
2018-11-25T17:13:31.850Z,56.10
2018-11-25T17:16:00.599Z,56.10
2018-11-25T17:18:29.183Z,56.10
2018-11-25T17:20:58.674Z,56.10
2018-11-25T17:23:27.358Z,56.10
2018-11-25T17:25:55.794Z,56.10
2018-11-25T17:28:24.188Z,56.00
2018-11-25T17:30:52.642Z,56.30
2018-11-25T17:33:21.863Z,56.30
2018-11-25T17:35:49.519Z,56.10
2018-11-25T17:38:17.973Z,56.00
2018-11-25T17:40:46.388Z,56.20
2018-11-25T17:43:18.014Z,56.20
2018-11-25T17:45:46.408Z,56.10
2018-11-25T17:48:15.928Z,56.20
2018-11-25T17:50:44.369Z,56.10
2018-11-25T17:53:20.444Z,56.80
2018-11-25T17:55:43.205Z,56.20
2018-11-25T17:58:11.714Z,56.10
2018-11-25T18:00:57.012Z,57.00
2018-11-25T18:03:27.969Z,56.20
2018-11-25T18:05:57.170Z,56.20
2018-11-25T18:08:25.872Z,56.20
2018-11-25T18:10:54.416Z,56.30
2018-11-25T18:13:24.988Z,56.30
2018-11-25T18:15:54.819Z,56.30
2018-11-25T18:18:27.714Z,56.30
2018-11-25T18:21:02.116Z,56.30
2018-11-25T18:23:31.310Z,56.30
2018-11-25T18:26:00.415Z,56.40
2018-11-25T18:28:30.713Z,56.50
2018-11-25T18:30:59.171Z,56.40
2018-11-25T18:33:28.211Z,56.30
2018-11-25T18:35:57.250Z,56.20
2018-11-25T18:38:25.744Z,56.20
2018-11-25T18:40:55.860Z,56.10
2018-11-25T18:43:24.466Z,56.10
2018-11-25T18:45:59.056Z,56.20
2018-11-25T18:48:22.456Z,56.20
2018-11-25T18:50:52.649Z,56.20
2018-11-25T18:53:21.114Z,56.10
2018-11-25T18:55:49.063Z,56.20
2018-11-25T18:58:18.217Z,56.10
2018-11-25T19:00:53.544Z,56.10
2018-11-25T19:03:21.986Z,56.20
2018-11-25T19:05:51.314Z,56.30
2018-11-25T19:08:20.436Z,56.10
2018-11-25T19:10:49.697Z,56.10
2018-11-25T19:13:18.765Z,56.20
2018-11-25T19:15:47.257Z,56.10
2018-11-25T19:18:15.940Z,56.10
2018-11-25T19:20:45.102Z,56.20
2018-11-25T19:23:13.833Z,56.20
2018-11-25T19:25:42.318Z,56.40
2018-11-25T19:28:11.045Z,56.30
2018-11-25T19:30:40.183Z,56.30
2018-11-25T19:33:11.716Z,56.30
2018-11-25T19:35:41.159Z,56.30
2018-11-25T19:38:11.025Z,56.30
2018-11-25T19:40:40.390Z,56.30
2018-11-25T19:43:09.504Z,56.40
2018-11-25T19:45:38.723Z,56.40
2018-11-25T19:48:10.197Z,56.20
2018-11-25T19:50:40.468Z,56.20
2018-11-25T19:53:11.621Z,56.30
2018-11-25T19:55:41.282Z,56.20
2018-11-25T19:58:13.017Z,56.20
2018-11-25T20:00:41.459Z,56.00
2018-11-25T20:03:09.908Z,56.30
2018-11-25T20:05:38.350Z,56.40
2018-11-25T20:08:09.874Z,56.30
2018-11-25T20:10:38.570Z,56.40
2018-11-25T20:13:08.682Z,56.40
2018-11-25T20:15:37.580Z,56.40
2018-11-25T20:18:08.226Z,56.50
2018-11-25T20:20:37.533Z,56.70
2018-11-25T20:23:06.615Z,56.60
2018-11-25T20:25:36.296Z,56.60
2018-11-25T20:28:04.860Z,56.20
2018-11-25T20:30:34.878Z,56.40
2018-11-25T20:33:08.717Z,56.40
2018-11-25T20:35:37.249Z,56.40
2018-11-25T20:38:12.659Z,56.50
2018-11-25T20:40:41.408Z,56.60
2018-11-25T20:43:10.723Z,56.50
2018-11-25T20:45:44.773Z,56.20
2018-11-25T20:48:13.853Z,56.10
2018-11-25T20:50:44.114Z,56.00
2018-11-25T20:53:17.905Z,56.10
2018-11-25T20:55:46.354Z,56.10
2018-11-25T20:58:15.482Z,56.10
2018-11-25T21:00:43.998Z,56.10
2018-11-25T21:03:13.555Z,56.20
2018-11-25T21:05:42.295Z,56.10
2018-11-25T21:08:10.761Z,56.10
2018-11-25T21:10:40.212Z,56.40
2018-11-25T21:13:10.102Z,56.40
2018-11-25T21:15:38.867Z,56.30
2018-11-25T21:18:08.316Z,56.30
2018-11-25T21:20:36.750Z,56.40
2018-11-25T21:23:05.845Z,56.40
2018-11-25T21:25:34.273Z,56.30
2018-11-25T21:28:02.733Z,56.60
2018-11-25T21:30:31.463Z,56.60
2018-11-25T21:32:59.903Z,56.40
2018-11-25T21:35:29.073Z,56.20
2018-11-25T21:37:57.517Z,56.20
2018-11-25T21:40:26.114Z,56.20
2018-11-25T21:42:55.844Z,56.10
2018-11-25T21:45:24.244Z,56.30
2018-11-25T21:47:52.654Z,56.30
2018-11-25T21:50:22.685Z,56.40
2018-11-25T21:52:51.832Z,56.30
2018-11-25T21:55:20.312Z,56.40
2018-11-25T21:57:48.684Z,56.40
2018-11-25T22:00:19.413Z,56.00
2018-11-25T22:02:47.869Z,56.50
2018-11-25T22:05:16.443Z,56.50
2018-11-25T22:07:44.816Z,56.70
2018-11-25T22:10:14.734Z,57.30
2018-11-25T22:12:43.311Z,56.60
2018-11-25T22:15:14.407Z,56.60
2018-11-25T22:17:43.371Z,56.60
2018-11-25T22:20:13.711Z,56.60
2018-11-25T22:22:42.191Z,56.60
2018-11-25T22:25:14.676Z,56.80
2018-11-25T22:27:43.056Z,56.60
2018-11-25T22:30:22.716Z,56.50
2018-11-25T22:32:51.271Z,56.30
2018-11-25T22:35:20.751Z,56.30
2018-11-25T22:37:49.092Z,56.30
2018-11-25T22:40:18.229Z,56.30
2018-11-25T22:42:47.478Z,56.70
2018-11-25T22:45:16.736Z,56.40
2018-11-25T22:47:45.028Z,56.40
2018-11-25T22:50:15.337Z,56.40
2018-11-25T22:52:43.693Z,56.40
2018-11-25T22:55:24.806Z,56.40
2018-11-25T22:57:53.148Z,56.40
2018-11-25T23:00:25.287Z,56.60
2018-11-25T23:02:53.585Z,56.40
2018-11-25T23:05:33.296Z,56.50
2018-11-25T23:08:01.613Z,56.50
2018-11-25T23:10:29.924Z,56.40
2018-11-25T23:12:59.018Z,56.50
2018-11-25T23:15:27.317Z,56.50
2018-11-25T23:17:55.616Z,57.20
2018-11-25T23:20:23.922Z,56.80
2018-11-25T23:22:52.234Z,56.80
2018-11-25T23:25:20.660Z,56.60
2018-11-25T23:27:49.050Z,56.50
2018-11-25T23:30:17.344Z,56.50
2018-11-25T23:32:45.689Z,56.50
2018-11-25T23:35:29.477Z,56.40
2018-11-25T23:37:57.982Z,56.50
2018-11-25T23:40:26.290Z,56.50
2018-11-25T23:42:54.568Z,56.50
2018-11-25T23:45:22.897Z,56.60
2018-11-25T23:47:51.186Z,56.40
2018-11-25T23:50:20.173Z,56.40
2018-11-25T23:52:49.087Z,56.50
2018-11-25T23:55:17.380Z,56.40
2018-11-25T23:57:45.684Z,56.60
